sensor_id;sensor_type;location;lat;lon;timestamp;pressure;altitude;pressure_sealevel;temperature;humidity
86143;BME280;76799;50.146;22.704;2024-02-26T00:00:26;98860.66;;;9.84;87.16
86143;BME280;76799;50.146;22.704;2024-02-26T00:02:52;98865.78;;;9.85;86.19
86143;BME280;76799;50.146;22.704;2024-02-26T00:05:17;98853.56;;;9.84;86.76
86143;BME280;76799;50.146;22.704;2024-02-26T00:07:42;98856.38;;;9.83;86.36
86143;BME280;76799;50.146;22.704;2024-02-26T00:10:09;98846.13;;;9.80;86.55
86143;BME280;76799;50.146;22.704;2024-02-26T00:12:34;98843.19;;;9.75;87.43
86143;BME280;76799;50.146;22.704;2024-02-26T00:15:00;98832.38;;;9.62;88.20
86143;BME280;76799;50.146;22.704;2024-02-26T00:17:25;98824.16;;;9.57;88.43
86143;BME280;76799;50.146;22.704;2024-02-26T00:19:51;98820.88;;;9.55;88.55
86143;BME280;76799;50.146;22.704;2024-02-26T00:22:16;98818.22;;;9.55;88.63
86143;BME280;76799;50.146;22.704;2024-02-26T00:24:42;98817.72;;;9.59;87.75
86143;BME280;76799;50.146;22.704;2024-02-26T00:27:07;98817.53;;;9.61;87.54
86143;BME280;76799;50.146;22.704;2024-02-26T00:29:32;98813.72;;;9.63;87.63
86143;BME280;76799;50.146;22.704;2024-02-26T00:31:58;98813.06;;;9.61;87.44
86143;BME280;76799;50.146;22.704;2024-02-26T00:34:24;98816.38;;;9.63;87.40
86143;BME280;76799;50.146;22.704;2024-02-26T00:36:49;98813.88;;;9.62;87.33
86143;BME280;76799;50.146;22.704;2024-02-26T00:39:14;98814.28;;;9.51;88.65
86143;BME280;76799;50.146;22.704;2024-02-26T00:41:40;98810.19;;;9.48;88.99
86143;BME280;76799;50.146;22.704;2024-02-26T00:44:06;98819.94;;;9.48;88.61
86143;BME280;76799;50.146;22.704;2024-02-26T00:46:32;98807.38;;;9.50;88.12
86143;BME280;76799;50.146;22.704;2024-02-26T00:48:57;98813.13;;;9.53;87.75
86143;BME280;76799;50.146;22.704;2024-02-26T00:51:22;98811.00;;;9.49;88.94
86143;BME280;76799;50.146;22.704;2024-02-26T00:53:48;98808.66;;;9.54;87.66
86143;BME280;76799;50.146;22.704;2024-02-26T00:56:14;98803.72;;;9.51;88.24
86143;BME280;76799;50.146;22.704;2024-02-26T00:58:40;98799.72;;;9.55;88.03
86143;BME280;76799;50.146;22.704;2024-02-26T01:01:05;98803.56;;;9.52;87.99
86143;BME280;76799;50.146;22.704;2024-02-26T01:03:30;98810.28;;;9.55;88.12
86143;BME280;76799;50.146;22.704;2024-02-26T01:05:56;98813.94;;;9.54;88.26
86143;BME280;76799;50.146;22.704;2024-02-26T01:08:21;98815.59;;;9.55;87.88
86143;BME280;76799;50.146;22.704;2024-02-26T01:10:47;98819.22;;;9.54;87.61
86143;BME280;76799;50.146;22.704;2024-02-26T01:13:12;98820.88;;;9.55;87.54
86143;BME280;76799;50.146;22.704;2024-02-26T01:15:37;98827.81;;;9.56;87.76
86143;BME280;76799;50.146;22.704;2024-02-26T01:18:03;98816.44;;;9.55;87.61
86143;BME280;76799;50.146;22.704;2024-02-26T01:20:28;98831.28;;;9.56;88.05
86143;BME280;76799;50.146;22.704;2024-02-26T01:22:54;98826.53;;;9.52;88.43
86143;BME280;76799;50.146;22.704;2024-02-26T01:25:19;98827.00;;;9.55;88.10
86143;BME280;76799;50.146;22.704;2024-02-26T01:27:44;98821.78;;;9.47;89.06
86143;BME280;76799;50.146;22.704;2024-02-26T01:30:10;98816.66;;;9.46;88.98
86143;BME280;76799;50.146;22.704;2024-02-26T01:32:36;98812.84;;;9.48;88.61
86143;BME280;76799;50.146;22.704;2024-02-26T01:35:02;98819.94;;;9.48;88.83
86143;BME280;76799;50.146;22.704;2024-02-26T01:37:32;98825.22;;;9.48;89.03
86143;BME280;76799;50.146;22.704;2024-02-26T01:39:58;98831.00;;;9.51;88.23
86143;BME280;76799;50.146;22.704;2024-02-26T01:42:23;98837.94;;;9.52;88.28
86143;BME280;76799;50.146;22.704;2024-02-26T01:44:49;98836.75;;;9.55;88.88
86143;BME280;76799;50.146;22.704;2024-02-26T01:47:14;98844.31;;;9.58;87.82
86143;BME280;76799;50.146;22.704;2024-02-26T01:49:40;98843.31;;;9.59;87.90
86143;BME280;76799;50.146;22.704;2024-02-26T01:52:08;98843.31;;;9.59;87.28
86143;BME280;76799;50.146;22.704;2024-02-26T01:54:37;98843.81;;;9.62;87.86
86143;BME280;76799;50.146;22.704;2024-02-26T01:57:04;98839.56;;;9.53;89.49
86143;BME280;76799;50.146;22.704;2024-02-26T01:59:30;98840.09;;;9.49;89.90
86143;BME280;76799;50.146;22.704;2024-02-26T02:01:59;98831.44;;;9.55;88.71
86143;BME280;76799;50.146;22.704;2024-02-26T02:04:27;98833.75;;;9.58;88.37
86143;BME280;76799;50.146;22.704;2024-02-26T02:06:53;98825.81;;;9.58;88.61
86143;BME280;76799;50.146;22.704;2024-02-26T02:09:18;98830.09;;;9.59;88.64
86143;BME280;76799;50.146;22.704;2024-02-26T02:11:44;98828.28;;;9.59;88.40
86143;BME280;76799;50.146;22.704;2024-02-26T02:14:10;98821.38;;;9.58;88.46
86143;BME280;76799;50.146;22.704;2024-02-26T02:16:35;98825.00;;;9.57;88.54
86143;BME280;76799;50.146;22.704;2024-02-26T02:19:01;98818.06;;;9.56;88.25
86143;BME280;76799;50.146;22.704;2024-02-26T02:21:26;98808.00;;;9.52;89.48
86143;BME280;76799;50.146;22.704;2024-02-26T02:23:52;98817.00;;;9.43;89.77
86143;BME280;76799;50.146;22.704;2024-02-26T02:26:18;98816.66;;;9.46;89.43
86143;BME280;76799;50.146;22.704;2024-02-26T02:28:44;98803.28;;;9.47;88.92
86143;BME280;76799;50.146;22.704;2024-02-26T02:31:11;98805.25;;;9.45;89.08
86143;BME280;76799;50.146;22.704;2024-02-26T02:33:37;98791.25;;;9.37;89.75
86143;BME280;76799;50.146;22.704;2024-02-26T02:36:03;98789.28;;;9.39;88.96
86143;BME280;76799;50.146;22.704;2024-02-26T02:38:28;98779.06;;;9.36;90.01
86143;BME280;76799;50.146;22.704;2024-02-26T02:40:55;98794.56;;;9.39;89.54
86143;BME280;76799;50.146;22.704;2024-02-26T02:43:21;98797.56;;;9.36;90.25
86143;BME280;76799;50.146;22.704;2024-02-26T02:45:46;98816.53;;;9.39;89.82
86143;BME280;76799;50.146;22.704;2024-02-26T02:48:11;98827.91;;;9.40;89.35
86143;BME280;76799;50.146;22.704;2024-02-26T02:50:37;98844.78;;;9.39;90.20
86143;BME280;76799;50.146;22.704;2024-02-26T02:53:03;98841.13;;;9.40;89.46
86143;BME280;76799;50.146;22.704;2024-02-26T02:55:28;98845.78;;;9.38;89.38
86143;BME280;76799;50.146;22.704;2024-02-26T02:57:54;98854.34;;;9.40;89.09
86143;BME280;76799;50.146;22.704;2024-02-26T03:00:19;98856.66;;;9.43;88.46
86143;BME280;76799;50.146;22.704;2024-02-26T03:02:45;98853.19;;;9.42;89.64
86143;BME280;76799;50.146;22.704;2024-02-26T03:05:11;98858.34;;;9.36;90.39
86143;BME280;76799;50.146;22.704;2024-02-26T03:07:36;98851.72;;;9.40;89.59
86143;BME280;76799;50.146;22.704;2024-02-26T03:10:02;98842.50;;;9.36;90.95
86143;BME280;76799;50.146;22.704;2024-02-26T03:12:27;98841.69;;;9.35;90.47
86143;BME280;76799;50.146;22.704;2024-02-26T03:14:53;98841.31;;;9.38;89.47
86143;BME280;76799;50.146;22.704;2024-02-26T03:17:20;98833.75;;;9.35;90.70
86143;BME280;76799;50.146;22.704;2024-02-26T03:19:46;98834.91;;;9.33;90.73
86143;BME280;76799;50.146;22.704;2024-02-26T03:22:12;98843.31;;;9.36;89.93
86143;BME280;76799;50.146;22.704;2024-02-26T03:24:38;98838.84;;;9.37;90.79
86143;BME280;76799;50.146;22.704;2024-02-26T03:27:03;98836.25;;;9.29;91.82
86143;BME280;76799;50.146;22.704;2024-02-26T03:29:34;98829.31;;;9.28;91.09
86143;BME280;76799;50.146;22.704;2024-02-26T03:32:00;98825.69;;;9.29;90.96
86143;BME280;76799;50.146;22.704;2024-02-26T03:34:25;98835.91;;;9.32;90.44
86143;BME280;76799;50.146;22.704;2024-02-26T03:36:51;98820.09;;;9.24;91.31
86143;BME280;76799;50.146;22.704;2024-02-26T03:39:17;98820.63;;;9.19;91.50
86143;BME280;76799;50.146;22.704;2024-02-26T03:41:42;98819.44;;;9.22;90.86
86143;BME280;76799;50.146;22.704;2024-02-26T03:44:07;98830.66;;;9.24;90.43
86143;BME280;76799;50.146;22.704;2024-02-26T03:46:33;98826.88;;;9.26;90.50
86143;BME280;76799;50.146;22.704;2024-02-26T03:48:58;98831.16;;;9.27;90.08
86143;BME280;76799;50.146;22.704;2024-02-26T03:51:24;98832.16;;;9.26;89.96
86143;BME280;76799;50.146;22.704;2024-02-26T03:53:49;98825.38;;;9.24;90.54
86143;BME280;76799;50.146;22.704;2024-02-26T03:56:14;98828.50;;;9.27;89.98
86143;BME280;76799;50.146;22.704;2024-02-26T03:58:40;98830.00;;;9.22;90.67
86143;BME280;76799;50.146;22.704;2024-02-26T04:01:09;98826.38;;;9.23;90.28
86143;BME280;76799;50.146;22.704;2024-02-26T04:03:34;98826.72;;;9.20;90.89
86143;BME280;76799;50.146;22.704;2024-02-26T04:06:00;98841.59;;;9.21;90.08
86143;BME280;76799;50.146;22.704;2024-02-26T04:08:25;98829.56;;;9.18;90.19
86143;BME280;76799;50.146;22.704;2024-02-26T04:10:51;98833.66;;;9.21;90.24
86143;BME280;76799;50.146;22.704;2024-02-26T04:13:17;98837.94;;;9.22;89.88
86143;BME280;76799;50.146;22.704;2024-02-26T04:15:42;98843.88;;;9.24;89.97
86143;BME280;76799;50.146;22.704;2024-02-26T04:18:08;98835.94;;;9.24;89.66
86143;BME280;76799;50.146;22.704;2024-02-26T04:20:33;98841.25;;;9.24;90.19
86143;BME280;76799;50.146;22.704;2024-02-26T04:22:59;98842.56;;;9.20;90.32
86143;BME280;76799;50.146;22.704;2024-02-26T04:25:24;98842.56;;;9.20;89.65
86143;BME280;76799;50.146;22.704;2024-02-26T04:27:49;98839.78;;;9.21;90.08
86143;BME280;76799;50.146;22.704;2024-02-26T04:30:15;98837.94;;;9.22;89.69
86143;BME280;76799;50.146;22.704;2024-02-26T04:32:42;98841.28;;;9.16;91.14
86143;BME280;76799;50.146;22.704;2024-02-26T04:35:07;98835.34;;;9.14;90.96
86143;BME280;76799;50.146;22.704;2024-02-26T04:37:33;98844.56;;;9.18;89.93
86143;BME280;76799;50.146;22.704;2024-02-26T04:39:59;98839.28;;;9.18;90.13
86143;BME280;76799;50.146;22.704;2024-02-26T04:42:25;98844.28;;;9.13;91.08
86143;BME280;76799;50.146;22.704;2024-02-26T04:44:50;98848.41;;;9.15;90.41
86143;BME280;76799;50.146;22.704;2024-02-26T04:47:16;98844.91;;;9.15;90.61
86143;BME280;76799;50.146;22.704;2024-02-26T04:49:41;98845.56;;;9.17;90.04
86143;BME280;76799;50.146;22.704;2024-02-26T04:52:07;98847.56;;;9.15;90.01
86143;BME280;76799;50.146;22.704;2024-02-26T04:54:32;98844.13;;;9.14;89.96
86143;BME280;76799;50.146;22.704;2024-02-26T04:56:57;98839.97;;;9.12;90.49
86143;BME280;76799;50.146;22.704;2024-02-26T04:59:23;98849.75;;;9.11;90.54
86143;BME280;76799;50.146;22.704;2024-02-26T05:01:48;98851.38;;;9.12;89.60
86143;BME280;76799;50.146;22.704;2024-02-26T05:04:14;98854.19;;;9.11;90.05
86143;BME280;76799;50.146;22.704;2024-02-26T05:06:39;98854.19;;;9.11;89.54
86143;BME280;76799;50.146;22.704;2024-02-26T05:09:05;98860.47;;;9.10;90.20
86143;BME280;76799;50.146;22.704;2024-02-26T05:11:30;98858.16;;;9.07;90.25
86143;BME280;76799;50.146;22.704;2024-02-26T05:13:56;98856.19;;;9.09;89.89
86143;BME280;76799;50.146;22.704;2024-02-26T05:16:22;98858.16;;;9.07;90.42
86143;BME280;76799;50.146;22.704;2024-02-26T05:18:49;98859.00;;;9.07;90.02
86143;BME280;76799;50.146;22.704;2024-02-26T05:21:15;98865.09;;;9.08;89.97
86143;BME280;76799;50.146;22.704;2024-02-26T05:23:40;98865.94;;;9.08;90.25
86143;BME280;76799;50.146;22.704;2024-02-26T05:26:08;98858.50;;;9.04;90.37
86143;BME280;76799;50.146;22.704;2024-02-26T05:28:33;98851.59;;;9.03;90.54
86143;BME280;76799;50.146;22.704;2024-02-26T05:30:58;98865.44;;;9.05;90.34
86143;BME280;76799;50.146;22.704;2024-02-26T05:33:24;98857.72;;;9.03;90.12
86143;BME280;76799;50.146;22.704;2024-02-26T05:35:50;98856.88;;;9.03;89.81
86143;BME280;76799;50.146;22.704;2024-02-26T05:38:15;98849.94;;;9.02;90.42
86143;BME280;76799;50.146;22.704;2024-02-26T05:40:41;98856.75;;;8.96;90.76
86143;BME280;76799;50.146;22.704;2024-02-26T05:43:06;98858.56;;;8.96;91.12
86143;BME280;76799;50.146;22.704;2024-02-26T05:45:31;98869.47;;;8.93;90.82
86143;BME280;76799;50.146;22.704;2024-02-26T05:47:58;98867.16;;;8.90;91.37
86143;BME280;76799;50.146;22.704;2024-02-26T05:50:23;98869.03;;;8.82;91.61
86143;BME280;76799;50.146;22.704;2024-02-26T05:52:48;98872.66;;;8.81;91.54
86143;BME280;76799;50.146;22.704;2024-02-26T05:55:14;98874.31;;;8.82;91.81
86143;BME280;76799;50.146;22.704;2024-02-26T05:57:39;98871.34;;;8.77;92.04
86143;BME280;76799;50.146;22.704;2024-02-26T06:00:05;98876.13;;;8.73;92.22
86143;BME280;76799;50.146;22.704;2024-02-26T06:02:31;98874.16;;;8.75;92.25
86143;BME280;76799;50.146;22.704;2024-02-26T06:04:57;98875.81;;;8.76;91.96
86143;BME280;76799;50.146;22.704;2024-02-26T06:07:23;98872.34;;;8.76;92.14
86143;BME280;76799;50.146;22.704;2024-02-26T06:09:48;98868.88;;;8.75;91.85
86143;BME280;76799;50.146;22.704;2024-02-26T06:12:14;98879.44;;;8.75;91.99
86143;BME280;76799;50.146;22.704;2024-02-26T06:14:39;98879.78;;;8.72;92.49
86143;BME280;76799;50.146;22.704;2024-02-26T06:17:05;98891.66;;;8.76;91.95
86143;BME280;76799;50.146;22.704;2024-02-26T06:19:30;98889.00;;;8.76;92.00
86143;BME280;76799;50.146;22.704;2024-02-26T06:21:55;98889.34;;;8.73;92.15
86143;BME280;76799;50.146;22.704;2024-02-26T06:24:21;98885.06;;;8.72;92.37
86143;BME280;76799;50.146;22.704;2024-02-26T06:26:47;98890.66;;;8.77;91.79
86143;BME280;76799;50.146;22.704;2024-02-26T06:29:13;98887.84;;;8.79;92.30
86143;BME280;76799;50.146;22.704;2024-02-26T06:31:38;98882.03;;;8.83;91.56
86143;BME280;76799;50.146;22.704;2024-02-26T06:34:04;98884.22;;;8.80;92.25
86143;BME280;76799;50.146;22.704;2024-02-26T06:36:29;98882.53;;;8.87;91.48
86143;BME280;76799;50.146;22.704;2024-02-26T06:38:56;98887.94;;;8.93;90.79
86143;BME280;76799;50.146;22.704;2024-02-26T06:41:22;98891.13;;;8.89;91.54
86143;BME280;76799;50.146;22.704;2024-02-26T06:43:53;98887.50;;;8.90;91.43
86143;BME280;76799;50.146;22.704;2024-02-26T06:46:18;98893.25;;;8.93;91.42
86143;BME280;76799;50.146;22.704;2024-02-26T06:48:43;98890.28;;;8.88;91.55
86143;BME280;76799;50.146;22.704;2024-02-26T06:51:09;98890.94;;;8.90;91.79
86143;BME280;76799;50.146;22.704;2024-02-26T06:53:34;98894.53;;;8.97;91.29
86143;BME280;76799;50.146;22.704;2024-02-26T06:56:00;98890.75;;;8.99;91.13
86143;BME280;76799;50.146;22.704;2024-02-26T06:58:25;98893.84;;;9.03;90.74
86143;BME280;76799;50.146;22.704;2024-02-26T07:00:51;98892.72;;;9.05;90.79
86143;BME280;76799;50.146;22.704;2024-02-26T07:03:16;98898.44;;;9.09;91.15
86143;BME280;76799;50.146;22.704;2024-02-26T07:05:42;98892.81;;;9.12;90.50
86143;BME280;76799;50.146;22.704;2024-02-26T07:08:07;98894.81;;;9.10;90.94
86143;BME280;76799;50.146;22.704;2024-02-26T07:10:32;98888.53;;;9.11;91.68
86143;BME280;76799;50.146;22.704;2024-02-26T07:12:58;98900.41;;;9.15;91.05
86143;BME280;76799;50.146;22.704;2024-02-26T07:15:24;98912.81;;;9.14;91.07
86143;BME280;76799;50.146;22.704;2024-02-26T07:17:49;98911.63;;;9.17;91.20
86143;BME280;76799;50.146;22.704;2024-02-26T07:20:15;98906.00;;;9.20;90.77
86143;BME280;76799;50.146;22.704;2024-02-26T07:22:41;98909.63;;;9.19;90.86
86143;BME280;76799;50.146;22.704;2024-02-26T07:25:08;98909.28;;;9.22;90.97
86143;BME280;76799;50.146;22.704;2024-02-26T07:27:34;98909.94;;;9.24;91.08
86143;BME280;76799;50.146;22.704;2024-02-26T07:29:59;98905.31;;;9.26;90.48
86143;BME280;76799;50.146;22.704;2024-02-26T07:32:24;98905.31;;;9.26;91.34
86143;BME280;76799;50.146;22.704;2024-02-26T07:34:50;98908.44;;;9.29;90.91
86143;BME280;76799;50.146;22.704;2024-02-26T07:37:15;98905.47;;;9.32;90.50
86143;BME280;76799;50.146;22.704;2024-02-26T07:39:41;98911.91;;;9.30;90.35
86143;BME280;76799;50.146;22.704;2024-02-26T07:42:06;98905.63;;;9.31;90.38
86143;BME280;76799;50.146;22.704;2024-02-26T07:44:32;98907.47;;;9.30;90.35
86143;BME280;76799;50.146;22.704;2024-02-26T07:46:58;98910.75;;;9.32;90.17
86143;BME280;76799;50.146;22.704;2024-02-26T07:49:23;98915.19;;;9.32;90.57
86143;BME280;76799;50.146;22.704;2024-02-26T07:51:49;98915.84;;;9.34;89.61
86143;BME280;76799;50.146;22.704;2024-02-26T07:54:14;98914.03;;;9.34;89.89
86143;BME280;76799;50.146;22.704;2024-02-26T07:56:41;98917.16;;;9.38;89.78
86143;BME280;76799;50.146;22.704;2024-02-26T07:59:06;98915.81;;;9.42;89.58
86143;BME280;76799;50.146;22.704;2024-02-26T08:01:32;98907.72;;;9.43;89.73
86143;BME280;76799;50.146;22.704;2024-02-26T08:03:58;98916.28;;;9.45;89.84
86143;BME280;76799;50.146;22.704;2024-02-26T08:06:24;98916.41;;;9.52;89.33
86143;BME280;76799;50.146;22.704;2024-02-26T08:08:50;98923.53;;;9.51;89.51
86143;BME280;76799;50.146;22.704;2024-02-26T08:11:16;98914.91;;;9.57;89.55
86143;BME280;76799;50.146;22.704;2024-02-26T08:13:41;98904.78;;;9.61;89.58
86143;BME280;76799;50.146;22.704;2024-02-26T08:16:07;98917.00;;;9.62;89.66
86143;BME280;76799;50.146;22.704;2024-02-26T08:18:32;98916.50;;;9.66;88.97
86143;BME280;76799;50.146;22.704;2024-02-26T08:20:57;98915.97;;;9.71;89.64
86143;BME280;76799;50.146;22.704;2024-02-26T08:23:23;98917.25;;;9.75;89.09
86143;BME280;76799;50.146;22.704;2024-02-26T08:25:49;98925.50;;;9.80;88.91
86143;BME280;76799;50.146;22.704;2024-02-26T08:28:14;98917.22;;;9.83;89.50
86143;BME280;76799;50.146;22.704;2024-02-26T08:30:39;98921.97;;;9.87;88.21
86143;BME280;76799;50.146;22.704;2024-02-26T08:33:05;98920.72;;;9.98;88.47
86143;BME280;76799;50.146;22.704;2024-02-26T08:35:30;98929.50;;;10.06;88.16
86143;BME280;76799;50.146;22.704;2024-02-26T08:37:56;98926.13;;;10.12;87.28
86143;BME280;76799;50.146;22.704;2024-02-26T08:40:21;98915.63;;;10.19;88.01
86143;BME280;76799;50.146;22.704;2024-02-26T08:42:47;98918.22;;;10.26;87.78
86143;BME280;76799;50.146;22.704;2024-02-26T08:45:12;98922.44;;;10.35;86.90
86143;BME280;76799;50.146;22.704;2024-02-26T08:47:38;98921.38;;;10.44;87.20
86143;BME280;76799;50.146;22.704;2024-02-26T08:50:04;98917.00;;;10.51;86.28
86143;BME280;76799;50.146;22.704;2024-02-26T08:52:30;98917.56;;;10.61;85.69
86143;BME280;76799;50.146;22.704;2024-02-26T08:54:55;98910.16;;;10.71;86.04
86143;BME280;76799;50.146;22.704;2024-02-26T08:57:21;98915.19;;;10.81;85.07
86143;BME280;76799;50.146;22.704;2024-02-26T08:59:46;98917.94;;;10.87;84.24
86143;BME280;76799;50.146;22.704;2024-02-26T09:02:11;98917.84;;;10.95;84.62
86143;BME280;76799;50.146;22.704;2024-02-26T09:04:37;98923.72;;;11.05;83.23
86143;BME280;76799;50.146;22.704;2024-02-26T09:07:02;98922.34;;;11.09;83.40
86143;BME280;76799;50.146;22.704;2024-02-26T09:09:28;98918.59;;;11.18;82.12
86143;BME280;76799;50.146;22.704;2024-02-26T09:11:53;98914.44;;;11.30;82.63
86143;BME280;76799;50.146;22.704;2024-02-26T09:14:20;98918.53;;;11.33;82.74
86143;BME280;76799;50.146;22.704;2024-02-26T09:16:46;98917.38;;;11.35;81.66
86143;BME280;76799;50.146;22.704;2024-02-26T09:19:13;98923.56;;;11.42;81.30
86143;BME280;76799;50.146;22.704;2024-02-26T09:21:42;98905.28;;;11.47;81.34
86143;BME280;76799;50.146;22.704;2024-02-26T09:24:08;98912.22;;;11.48;81.37
86143;BME280;76799;50.146;22.704;2024-02-26T09:26:33;98902.69;;;11.53;81.51
86143;BME280;76799;50.146;22.704;2024-02-26T09:28:59;98903.88;;;11.65;81.30
86143;BME280;76799;50.146;22.704;2024-02-26T09:31:24;98901.47;;;11.70;80.10
86143;BME280;76799;50.146;22.704;2024-02-26T09:33:49;98899.53;;;11.79;80.34
86143;BME280;76799;50.146;22.704;2024-02-26T09:36:15;98891.47;;;11.87;80.15
86143;BME280;76799;50.146;22.704;2024-02-26T09:38:40;98900.94;;;11.96;80.69
86143;BME280;76799;50.146;22.704;2024-02-26T09:41:06;98894.28;;;12.06;78.54
86143;BME280;76799;50.146;22.704;2024-02-26T09:43:35;98897.41;;;12.10;79.85
86143;BME280;76799;50.146;22.704;2024-02-26T09:46:05;98899.91;;;12.18;79.44
86143;BME280;76799;50.146;22.704;2024-02-26T09:48:31;98900.81;;;12.25;78.43
86143;BME280;76799;50.146;22.704;2024-02-26T09:50:57;98898.00;;;12.33;78.20
86143;BME280;76799;50.146;22.704;2024-02-26T09:53:22;98900.91;;;12.38;78.09
86143;BME280;76799;50.146;22.704;2024-02-26T09:55:48;98905.25;;;12.45;76.96
86143;BME280;76799;50.146;22.704;2024-02-26T09:58:14;98899.38;;;12.50;77.20
86143;BME280;76799;50.146;22.704;2024-02-26T10:00:46;98903.06;;;12.55;76.45
86143;BME280;76799;50.146;22.704;2024-02-26T10:03:15;98905.16;;;12.60;75.71
86143;BME280;76799;50.146;22.704;2024-02-26T10:05:41;98900.28;;;12.63;77.34
86143;BME280;76799;50.146;22.704;2024-02-26T10:08:08;98909.31;;;12.69;76.66
86143;BME280;76799;50.146;22.704;2024-02-26T10:10:34;98905.44;;;12.71;76.52
86143;BME280;76799;50.146;22.704;2024-02-26T10:13:01;98905.88;;;12.75;75.59
86143;BME280;76799;50.146;22.704;2024-02-26T10:15:26;98905.69;;;12.76;76.03
86143;BME280;76799;50.146;22.704;2024-02-26T10:17:52;98900.56;;;12.75;75.15
86143;BME280;76799;50.146;22.704;2024-02-26T10:20:18;98903.66;;;12.78;76.04
86143;BME280;76799;50.146;22.704;2024-02-26T10:22:46;98908.19;;;12.84;75.60
86143;BME280;76799;50.146;22.704;2024-02-26T10:25:12;98906.53;;;12.83;74.49
86143;BME280;76799;50.146;22.704;2024-02-26T10:27:40;98906.97;;;12.86;73.72
86143;BME280;76799;50.146;22.704;2024-02-26T10:30:22;98904.28;;;12.86;74.12
86143;BME280;76799;50.146;22.704;2024-02-26T10:32:48;98904.91;;;12.88;75.28
86143;BME280;76799;50.146;22.704;2024-02-26T10:35:15;98902.09;;;12.90;74.43
86143;BME280;76799;50.146;22.704;2024-02-26T10:37:41;98891.72;;;12.95;73.27
86143;BME280;76799;50.146;22.704;2024-02-26T10:40:12;98893.53;;;12.94;73.76
86143;BME280;76799;50.146;22.704;2024-02-26T10:42:38;98891.50;;;12.96;73.42
86143;BME280;76799;50.146;22.704;2024-02-26T10:45:05;98889.47;;;12.98;73.98
86143;BME280;76799;50.146;22.704;2024-02-26T10:47:31;98882.50;;;12.97;74.68
86143;BME280;76799;50.146;22.704;2024-02-26T10:49:59;98878.44;;;13.01;74.56
86143;BME280;76799;50.146;22.704;2024-02-26T10:52:25;98877.88;;;13.06;73.79
86143;BME280;76799;50.146;22.704;2024-02-26T10:54:53;98869.91;;;13.12;73.99
86143;BME280;76799;50.146;22.704;2024-02-26T10:57:19;98870.75;;;13.13;74.37
86143;BME280;76799;50.146;22.704;2024-02-26T10:59:46;98869.13;;;13.18;73.68
86143;BME280;76799;50.146;22.704;2024-02-26T11:02:13;98863.00;;;13.24;72.71
86143;BME280;76799;50.146;22.704;2024-02-26T11:04:39;98865.06;;;13.29;72.60
86143;BME280;76799;50.146;22.704;2024-02-26T11:07:05;98863.84;;;13.31;72.86
86143;BME280;76799;50.146;22.704;2024-02-26T11:09:32;98874.72;;;13.36;73.63
86143;BME280;76799;50.146;22.704;2024-02-26T11:11:58;98862.03;;;13.38;73.45
86143;BME280;76799;50.146;22.704;2024-02-26T11:14:26;98865.31;;;13.40;72.81
86143;BME280;76799;50.146;22.704;2024-02-26T11:16:51;98861.03;;;13.46;73.15
86143;BME280;76799;50.146;22.704;2024-02-26T11:19:18;98864.09;;;13.49;73.02
86143;BME280;76799;50.146;22.704;2024-02-26T11:21:43;98861.66;;;13.54;73.20
86143;BME280;76799;50.146;22.704;2024-02-26T11:24:12;98858.19;;;13.60;73.34
86143;BME280;76799;50.146;22.704;2024-02-26T11:26:43;98861.50;;;13.69;72.77
86143;BME280;76799;50.146;22.704;2024-02-26T11:29:14;98863.16;;;13.76;73.08
86143;BME280;76799;50.146;22.704;2024-02-26T11:31:41;98861.53;;;13.82;73.01
86143;BME280;76799;50.146;22.704;2024-02-26T11:34:08;98852.94;;;13.86;72.01
86143;BME280;76799;50.146;22.704;2024-02-26T11:36:34;98853.34;;;13.96;71.79
86143;BME280;76799;50.146;22.704;2024-02-26T11:39:01;98851.94;;;14.00;72.70
86143;BME280;76799;50.146;22.704;2024-02-26T11:41:27;98862.38;;;14.02;73.13
86143;BME280;76799;50.146;22.704;2024-02-26T11:43:57;98859.72;;;14.08;72.70
86143;BME280;76799;50.146;22.704;2024-02-26T11:46:30;98854.19;;;14.10;72.56
86143;BME280;76799;50.146;22.704;2024-02-26T11:49:03;98861.59;;;14.14;71.95
86143;BME280;76799;50.146;22.704;2024-02-26T11:51:33;98862.81;;;14.18;71.82
86143;BME280;76799;50.146;22.704;2024-02-26T11:54:00;98855.44;;;14.20;72.57
86143;BME280;76799;50.146;22.704;2024-02-26T11:56:25;98855.03;;;14.23;71.56
86143;BME280;76799;50.146;22.704;2024-02-26T12:01:44;98863.44;;;14.20;71.88
86143;BME280;76799;50.146;22.704;2024-02-26T12:06:51;98850.13;;;14.20;72.22
86143;BME280;76799;50.146;22.704;2024-02-26T12:11:57;98858.31;;;14.25;71.99
86143;BME280;76799;50.146;22.704;2024-02-26T12:14:26;98859.78;;;14.27;72.14
86143;BME280;76799;50.146;22.704;2024-02-26T12:16:52;98857.50;;;14.31;72.13
86143;BME280;76799;50.146;22.704;2024-02-26T12:19:18;98853.41;;;14.35;73.42
86143;BME280;76799;50.146;22.704;2024-02-26T12:21:44;98856.88;;;14.42;72.90
86143;BME280;76799;50.146;22.704;2024-02-26T12:24:13;98858.31;;;14.44;72.60
86143;BME280;76799;50.146;22.704;2024-02-26T12:26:39;98855.03;;;14.49;72.03
86143;BME280;76799;50.146;22.704;2024-02-26T12:29:05;98860.38;;;14.55;71.96
86143;BME280;76799;50.146;22.704;2024-02-26T12:31:32;98853.59;;;14.59;71.96
86143;BME280;76799;50.146;22.704;2024-02-26T12:33:58;98851.72;;;14.60;71.43
86143;BME280;76799;50.146;22.704;2024-02-26T12:36:24;98858.09;;;14.59;71.59
86143;BME280;76799;50.146;22.704;2024-02-26T12:38:51;98857.91;;;14.60;71.33
86143;BME280;76799;50.146;22.704;2024-02-26T12:41:16;98860.34;;;14.62;71.66
86143;BME280;76799;50.146;22.704;2024-02-26T12:43:42;98862.22;;;14.61;72.71
86143;BME280;76799;50.146;22.704;2024-02-26T12:46:07;98859.31;;;14.63;71.79
86143;BME280;76799;50.146;22.704;2024-02-26T12:48:33;98866.91;;;14.66;71.14
86143;BME280;76799;50.146;22.704;2024-02-26T12:50:59;98857.88;;;14.67;70.90
86143;BME280;76799;50.146;22.704;2024-02-26T12:53:26;98867.75;;;14.66;70.71
86143;BME280;76799;50.146;22.704;2024-02-26T12:55:55;98866.91;;;14.66;72.28
86143;BME280;76799;50.146;22.704;2024-02-26T12:58:21;98866.47;;;14.69;73.72